createdAt,value
2023-05-01T00:01:54.127Z,9.73
2023-05-01T00:04:23.933Z,9.45
2023-05-01T00:06:52.432Z,9.36
2023-05-01T00:09:20.890Z,9.38
2023-05-01T00:11:49.196Z,9.69
2023-05-01T00:14:19.524Z,9.61
2023-05-01T00:16:48.029Z,9.40
2023-05-01T00:19:18.923Z,9.30
2023-05-01T00:21:51.551Z,9.28
2023-05-01T00:24:19.805Z,9.36
2023-05-01T00:26:48.253Z,9.45
2023-05-01T00:29:16.985Z,9.57
2023-05-01T00:31:45.761Z,9.49
2023-05-01T00:34:14.132Z,9.33
2023-05-01T00:36:42.626Z,9.04
2023-05-01T00:39:12.288Z,8.99
2023-05-01T00:41:40.622Z,9.07
2023-05-01T00:44:08.942Z,8.93
2023-05-01T00:46:37.526Z,9.08
2023-05-01T00:49:08.017Z,9.16
2023-05-01T00:51:36.926Z,8.91
2023-05-01T00:54:06.858Z,8.95
2023-05-01T00:56:36.706Z,9.24
2023-05-01T00:59:05.556Z,9.23
2023-05-01T01:01:34.646Z,9.20
2023-05-01T01:04:03.683Z,9.41
2023-05-01T01:06:42.199Z,9.34
2023-05-01T01:09:24.634Z,9.22
2023-05-01T01:12:04.240Z,9.31
2023-05-01T01:14:37.349Z,9.55
2023-05-01T01:17:13.011Z,9.47
2023-05-01T01:20:15.199Z,9.39
2023-05-01T01:22:49.115Z,9.22
2023-05-01T01:25:52.155Z,9.24
2023-05-01T01:28:46.835Z,8.97
2023-05-01T01:31:19.341Z,8.95
2023-05-01T01:34:00.921Z,8.98
2023-05-01T01:36:50.212Z,8.99
2023-05-01T01:39:30.171Z,8.96
2023-05-01T01:42:01.040Z,8.85
2023-05-01T01:44:35.422Z,8.94
2023-05-01T01:47:08.105Z,9.11
2023-05-01T01:49:43.555Z,8.98
2023-05-01T01:52:14.915Z,9.15
2023-05-01T01:54:52.066Z,8.90
2023-05-01T01:57:23.550Z,9.47
2023-05-01T01:59:52.562Z,9.08
2023-05-01T02:02:24.521Z,8.91
2023-05-01T02:04:57.028Z,8.92
2023-05-01T02:07:26.838Z,8.74
2023-05-01T02:09:57.245Z,8.78
2023-05-01T02:12:27.774Z,8.96
2023-05-01T02:14:57.346Z,9.08
2023-05-01T02:17:27.334Z,9.11
2023-05-01T02:19:58.543Z,9.34
2023-05-01T02:22:28.662Z,9.31
2023-05-01T02:25:01.213Z,9.09
2023-05-01T02:27:35.848Z,9.69
2023-05-01T02:30:07.843Z,9.26
2023-05-01T02:32:36.592Z,9.08
2023-05-01T02:35:06.955Z,9.08
2023-05-01T02:37:35.384Z,8.98
2023-05-01T02:40:05.742Z,9.07
2023-05-01T02:42:35.494Z,8.86
2023-05-01T02:45:06.683Z,9.00
2023-05-01T02:47:40.347Z,9.03
2023-05-01T02:50:12.185Z,8.94
2023-05-01T02:52:41.024Z,8.87
2023-05-01T02:55:29.278Z,8.53
2023-05-01T02:57:59.396Z,8.79
2023-05-01T03:00:28.148Z,9.01
2023-05-01T03:02:56.601Z,8.94
2023-05-01T03:05:26.811Z,8.78
2023-05-01T03:07:55.136Z,8.99
2023-05-01T03:10:23.835Z,8.95
2023-05-01T03:12:52.165Z,8.95
2023-05-01T03:15:20.465Z,8.77
2023-05-01T03:17:48.848Z,8.82
2023-05-01T03:20:17.590Z,8.93
2023-05-01T03:22:47.243Z,9.07
2023-05-01T03:25:15.662Z,8.86
2023-05-01T03:27:43.965Z,8.94
2023-05-01T03:30:13.086Z,8.93
2023-05-01T03:32:43.124Z,8.90
2023-05-01T03:35:19.581Z,9.14
2023-05-01T03:37:49.332Z,8.84
2023-05-01T03:40:37.126Z,9.04
2023-05-01T03:43:37.234Z,9.18
2023-05-01T03:46:10.846Z,9.03
2023-05-01T03:48:39.182Z,9.12
2023-05-01T03:51:07.485Z,9.35
2023-05-01T03:53:39.212Z,9.65
2023-05-01T03:56:09.175Z,9.40
2023-05-01T03:58:37.553Z,9.60
2023-05-01T04:01:06.442Z,9.23
2023-05-01T04:03:38.405Z,9.11
2023-05-01T04:06:09.247Z,9.51
2023-05-01T04:08:39.160Z,9.65
2023-05-01T04:11:07.501Z,9.55
2023-05-01T04:13:35.815Z,9.72
2023-05-01T04:16:04.394Z,9.77
2023-05-01T04:18:32.727Z,9.85
2023-05-01T04:21:01.305Z,9.79
2023-05-01T04:23:29.612Z,9.78
2023-05-01T04:26:01.696Z,9.51
2023-05-01T04:28:31.012Z,9.73
2023-05-01T04:30:59.309Z,9.89
2023-05-01T04:33:28.318Z,9.73
2023-05-01T04:35:59.025Z,9.80
2023-05-01T04:38:28.947Z,10.25
2023-05-01T04:40:58.358Z,10.30
2023-05-01T04:43:28.040Z,10.54
2023-05-01T04:45:57.793Z,9.66
2023-05-01T04:48:26.323Z,9.85
2023-05-01T04:50:55.111Z,9.68
2023-05-01T04:53:24.874Z,9.72
2023-05-01T04:55:53.149Z,9.93
2023-05-01T04:58:21.544Z,9.73
2023-05-01T05:00:54.546Z,9.82
2023-05-01T05:03:24.552Z,9.62
2023-05-01T05:05:55.366Z,9.58
2023-05-01T05:08:24.207Z,9.87
2023-05-01T05:10:59.318Z,9.39
2023-05-01T05:13:47.971Z,9.74
2023-05-01T05:16:17.903Z,9.71
2023-05-01T05:18:46.267Z,9.45
2023-05-01T05:21:14.652Z,9.64
2023-05-01T05:23:49.103Z,9.69
2023-05-01T05:26:17.843Z,9.75
2023-05-01T05:28:46.219Z,9.69
2023-05-01T05:31:14.675Z,9.93
2023-05-01T05:33:46.916Z,9.83
2023-05-01T05:36:17.233Z,10.11
2023-05-01T05:38:45.942Z,10.10
2023-05-01T05:41:18.645Z,10.46
2023-05-01T05:43:48.338Z,10.11
2023-05-01T05:46:16.732Z,10.28
2023-05-01T05:48:46.717Z,10.57
2023-05-01T05:51:18.034Z,10.74
2023-05-01T05:53:48.741Z,10.83
2023-05-01T05:56:17.347Z,10.99
2023-05-01T05:58:48.203Z,10.99
2023-05-01T06:01:16.546Z,11.05
2023-05-01T06:03:46.409Z,11.02
2023-05-01T06:06:15.211Z,10.90
2023-05-01T06:08:45.612Z,10.87
2023-05-01T06:11:13.945Z,10.99
2023-05-01T06:13:42.300Z,11.20
2023-05-01T06:16:11.047Z,10.97
2023-05-01T06:18:39.399Z,10.66
2023-05-01T06:21:11.423Z,10.68
2023-05-01T06:23:39.972Z,11.04
2023-05-01T06:26:26.967Z,11.22
2023-05-01T06:28:55.500Z,11.22
2023-05-01T06:31:23.908Z,11.39
2023-05-01T06:33:55.858Z,10.90
2023-05-01T06:36:31.745Z,11.09
2023-05-01T06:39:00.072Z,11.83
2023-05-01T06:41:28.468Z,11.06
2023-05-01T06:43:56.817Z,10.94
2023-05-01T06:46:25.209Z,11.02
2023-05-01T06:48:53.546Z,11.27
2023-05-01T06:51:21.813Z,11.31
2023-05-01T06:53:51.557Z,11.71
2023-05-01T06:56:23.804Z,11.38
2023-05-01T06:58:52.222Z,11.70
2023-05-01T07:01:20.484Z,11.40
2023-05-01T07:03:48.889Z,11.37
2023-05-01T07:06:17.234Z,11.26
2023-05-01T07:08:45.666Z,11.27
2023-05-01T07:11:18.553Z,11.26
2023-05-01T07:13:46.910Z,12.03
2023-05-01T07:16:15.246Z,12.04
2023-05-01T07:18:46.134Z,11.42
2023-05-01T07:21:14.490Z,11.45
2023-05-01T07:23:42.823Z,11.50
2023-05-01T07:26:11.246Z,11.36
2023-05-01T07:28:41.794Z,11.46
2023-05-01T07:31:11.145Z,11.33
2023-05-01T07:33:39.492Z,11.28
2023-05-01T07:36:07.890Z,11.54
2023-05-01T07:38:36.228Z,11.60
2023-05-01T07:41:06.691Z,11.38
2023-05-01T07:43:37.625Z,11.89
2023-05-01T07:46:07.503Z,11.81
2023-05-01T07:48:38.178Z,11.87
2023-05-01T07:51:07.244Z,12.24
2023-05-01T07:53:35.523Z,12.21
2023-05-01T07:56:08.636Z,12.34
2023-05-01T07:58:38.058Z,12.29
2023-05-01T08:01:07.893Z,12.00
2023-05-01T08:03:36.275Z,13.05
2023-05-01T08:06:04.987Z,12.45
2023-05-01T08:08:33.682Z,12.88
2023-05-01T08:11:02.208Z,12.45
2023-05-01T08:13:30.816Z,12.62
2023-05-01T08:16:05.186Z,13.40
2023-05-01T08:18:37.240Z,13.29
2023-05-01T08:21:05.548Z,13.48
2023-05-01T08:23:35.883Z,12.99
2023-05-01T08:26:04.309Z,12.79
2023-05-01T08:28:37.610Z,12.65
2023-05-01T08:31:06.147Z,12.82
2023-05-01T08:33:38.435Z,13.46
2023-05-01T08:36:07.485Z,13.46
2023-05-01T08:38:36.146Z,13.14
2023-05-01T08:41:04.716Z,13.44
2023-05-01T08:43:33.545Z,13.15
2023-05-01T08:46:02.987Z,12.98
2023-05-01T08:48:34.988Z,13.10
2023-05-01T08:51:06.266Z,13.15
2023-05-01T08:53:35.166Z,13.44
2023-05-01T08:56:07.717Z,13.81
2023-05-01T08:58:36.831Z,13.90
2023-05-01T09:01:05.580Z,14.10
2023-05-01T09:03:34.494Z,14.43
2023-05-01T09:06:05.203Z,14.30
2023-05-01T09:08:33.641Z,14.67
2023-05-01T09:11:03.883Z,14.53
2023-05-01T09:13:33.231Z,14.07
2023-05-01T09:16:03.322Z,13.98
2023-05-01T09:18:31.974Z,14.61
2023-05-01T09:21:03.273Z,14.42
2023-05-01T09:23:33.086Z,13.81
2023-05-01T09:26:05.167Z,14.56
2023-05-01T09:28:44.913Z,14.40
2023-05-01T09:31:23.340Z,14.94
2023-05-01T09:33:55.464Z,15.10
2023-05-01T09:36:24.516Z,14.57
2023-05-01T09:38:56.500Z,14.79
2023-05-01T09:41:25.209Z,15.16
2023-05-01T09:43:54.836Z,14.60
2023-05-01T09:46:24.585Z,15.42
2023-05-01T09:48:55.110Z,16.96
2023-05-01T09:51:25.357Z,14.92
2023-05-01T09:53:54.307Z,15.46
2023-05-01T09:56:24.396Z,14.70
2023-05-01T09:58:53.460Z,15.75
2023-05-01T10:01:39.884Z,15.41
2023-05-01T10:04:09.821Z,16.66
2023-05-01T10:06:39.064Z,16.84
2023-05-01T10:09:16.692Z,16.90
2023-05-01T10:11:58.907Z,16.67
2023-05-01T10:14:30.383Z,17.36
2023-05-01T10:17:01.001Z,16.98
2023-05-01T10:19:29.567Z,17.11
2023-05-01T10:21:57.872Z,17.24
2023-05-01T10:24:26.692Z,16.74
2023-05-01T10:26:58.846Z,17.89
2023-05-01T10:29:30.827Z,17.43
2023-05-01T10:32:02.980Z,17.21
2023-05-01T10:34:34.749Z,17.05
2023-05-01T10:37:07.674Z,17.46
2023-05-01T10:39:37.342Z,18.39
2023-05-01T10:42:10.925Z,17.96
2023-05-01T10:44:39.483Z,17.69
2023-05-01T10:47:45.050Z,18.08
2023-05-01T10:50:15.773Z,18.10
2023-05-01T10:53:17.615Z,17.71
2023-05-01T10:55:47.400Z,17.46
2023-05-01T10:58:56.290Z,18.27
2023-05-01T11:01:32.981Z,17.87
2023-05-01T11:04:04.025Z,18.23
2023-05-01T11:06:33.537Z,18.51
2023-05-01T11:09:02.751Z,18.30
2023-05-01T11:11:50.332Z,18.00
2023-05-01T11:14:20.148Z,18.22
2023-05-01T11:16:49.407Z,18.45
2023-05-01T11:19:49.081Z,18.87
2023-05-01T11:22:18.293Z,18.43
2023-05-01T11:24:47.982Z,18.55
2023-05-01T11:27:18.031Z,17.92
2023-05-01T11:29:51.733Z,18.24
2023-05-01T11:32:27.068Z,17.87
2023-05-01T11:34:55.937Z,18.74
2023-05-01T11:37:43.078Z,18.78
2023-05-01T11:40:22.363Z,18.94
2023-05-01T11:42:51.655Z,17.79
2023-05-01T11:45:21.410Z,18.46
2023-05-01T11:47:50.160Z,18.18
2023-05-01T11:50:18.705Z,18.08
2023-05-01T11:52:49.344Z,18.11
2023-05-01T11:55:17.810Z,18.06
2023-05-01T11:57:50.583Z,17.84
2023-05-01T12:00:29.982Z,18.63
2023-05-01T12:03:03.859Z,17.82
2023-05-01T12:05:37.078Z,18.28
2023-05-01T12:08:14.296Z,18.53
2023-05-01T12:10:44.406Z,17.97
2023-05-01T12:13:14.452Z,18.78
2023-05-01T12:15:48.260Z,17.96
2023-05-01T12:18:17.888Z,17.85
2023-05-01T12:20:48.638Z,19.16
2023-05-01T12:23:17.553Z,18.54
2023-05-01T12:25:47.464Z,18.75
2023-05-01T12:28:18.161Z,18.64
2023-05-01T12:30:49.193Z,17.44
2023-05-01T12:33:19.268Z,18.38
2023-05-01T12:35:49.752Z,18.68
2023-05-01T12:38:19.383Z,18.82
2023-05-01T12:40:53.173Z,17.70
2023-05-01T12:43:23.383Z,18.04
2023-05-01T12:45:54.720Z,18.52
2023-05-01T12:48:23.825Z,17.97
2023-05-01T12:50:54.872Z,17.13
2023-05-01T12:53:24.241Z,18.56
2023-05-01T12:55:54.596Z,19.09
2023-05-01T12:58:25.917Z,18.22
2023-05-01T13:00:56.401Z,18.61
2023-05-01T13:03:26.034Z,18.69
2023-05-01T13:05:56.416Z,17.50
2023-05-01T13:08:29.456Z,17.55
2023-05-01T13:10:59.376Z,18.01
2023-05-01T13:13:31.853Z,17.79
2023-05-01T13:16:12.550Z,18.81
2023-05-01T13:18:46.129Z,18.99
2023-05-01T13:21:16.369Z,19.13
2023-05-01T13:23:54.354Z,19.29
2023-05-01T13:26:31.502Z,18.75
2023-05-01T13:29:01.795Z,19.75
2023-05-01T13:31:31.882Z,18.96
2023-05-01T13:34:02.911Z,19.19
2023-05-01T13:36:33.799Z,18.51
2023-05-01T13:39:02.287Z,19.39
2023-05-01T13:41:30.907Z,18.09
2023-05-01T13:44:01.461Z,18.04
2023-05-01T13:46:31.160Z,17.71
2023-05-01T13:49:04.677Z,17.58
2023-05-01T13:51:34.116Z,17.51
2023-05-01T13:54:03.463Z,18.16
2023-05-01T13:56:32.854Z,18.41
2023-05-01T13:59:03.466Z,18.03
2023-05-01T14:01:37.292Z,18.76
2023-05-01T14:04:10.094Z,19.20
2023-05-01T14:06:43.702Z,18.30
2023-05-01T14:09:12.465Z,18.05
2023-05-01T14:11:46.515Z,19.63
2023-05-01T14:14:17.207Z,18.63
2023-05-01T14:16:50.090Z,18.51
2023-05-01T14:19:19.027Z,18.84
2023-05-01T14:21:47.866Z,19.26
2023-05-01T14:24:17.798Z,19.74
2023-05-01T14:26:48.665Z,19.92
2023-05-01T14:29:23.711Z,18.32
2023-05-01T14:31:55.390Z,20.73
2023-05-01T14:34:23.974Z,18.20
2023-05-01T14:36:52.265Z,18.93
2023-05-01T14:39:20.655Z,19.21
2023-05-01T14:41:49.280Z,18.65
2023-05-01T14:44:20.780Z,18.60
2023-05-01T14:46:51.696Z,18.64
2023-05-01T14:49:24.319Z,18.18
2023-05-01T14:51:53.761Z,18.08
2023-05-01T14:54:24.056Z,18.48
2023-05-01T14:56:52.444Z,17.82
2023-05-01T14:59:22.809Z,18.25
2023-05-01T15:01:51.188Z,19.06
2023-05-01T15:04:21.290Z,18.70
2023-05-01T15:06:50.790Z,19.00
2023-05-01T15:09:19.153Z,18.94
2023-05-01T15:11:47.453Z,18.99
2023-05-01T15:14:15.830Z,18.85
2023-05-01T15:16:44.178Z,18.31
2023-05-01T15:19:12.512Z,17.42
2023-05-01T15:21:42.180Z,17.60
2023-05-01T15:24:11.434Z,18.02
2023-05-01T15:26:39.826Z,17.96
2023-05-01T15:29:08.165Z,17.67
2023-05-01T15:31:36.618Z,17.90
2023-05-01T15:34:05.313Z,17.64
2023-05-01T15:36:34.452Z,17.76
2023-05-01T15:39:06.017Z,17.65
2023-05-01T15:41:34.328Z,17.62
2023-05-01T15:44:05.825Z,17.47
2023-05-01T15:46:34.247Z,17.35
2023-05-01T15:49:02.672Z,17.89
2023-05-01T15:51:32.297Z,18.01
2023-05-01T15:54:02.546Z,17.83
2023-05-01T15:56:35.460Z,17.44
2023-05-01T15:59:04.691Z,17.69
2023-05-01T16:01:33.719Z,17.45
2023-05-01T16:04:04.101Z,17.16
2023-05-01T16:06:36.221Z,17.14
2023-05-01T16:09:06.025Z,16.72
2023-05-01T16:11:36.636Z,16.43
2023-05-01T16:14:05.155Z,15.77
2023-05-01T16:16:34.702Z,15.29
2023-05-01T16:19:03.173Z,15.02
2023-05-01T16:21:31.634Z,14.87
2023-05-01T16:24:02.902Z,15.28
2023-05-01T16:26:35.844Z,14.99
2023-05-01T16:29:06.595Z,14.75
2023-05-01T16:31:39.662Z,14.06
2023-05-01T16:34:13.270Z,14.03
2023-05-01T16:36:42.508Z,14.22
2023-05-01T16:39:12.421Z,14.56
2023-05-01T16:41:46.129Z,14.26
2023-05-01T16:44:16.103Z,14.53
2023-05-01T16:46:47.980Z,14.42
2023-05-01T16:49:16.640Z,14.42
2023-05-01T16:51:45.827Z,14.41
2023-05-01T16:54:15.025Z,15.31
2023-05-01T16:56:46.935Z,15.56
2023-05-01T16:59:15.239Z,15.12
2023-05-01T17:01:43.556Z,15.55
2023-05-01T17:04:12.116Z,15.07
2023-05-01T17:06:40.523Z,14.61
2023-05-01T17:09:08.824Z,14.34
2023-05-01T17:11:37.144Z,14.52
2023-05-01T17:14:06.812Z,14.51
2023-05-01T17:16:35.141Z,14.79
2023-05-01T17:19:08.684Z,14.80
2023-05-01T17:21:37.324Z,15.29
2023-05-01T17:24:07.960Z,14.95
2023-05-01T17:26:36.636Z,15.41
2023-05-01T17:29:06.323Z,15.30
2023-05-01T17:31:35.487Z,15.14
2023-05-01T17:34:03.782Z,14.90
2023-05-01T17:36:32.719Z,14.54
2023-05-01T17:39:01.407Z,14.72
2023-05-01T17:41:29.990Z,14.56
2023-05-01T17:43:58.311Z,14.31
2023-05-01T17:46:28.061Z,14.55
2023-05-01T17:48:56.351Z,14.30
2023-05-01T17:51:24.946Z,14.43
2023-05-01T17:53:53.483Z,14.33
2023-05-01T17:56:21.703Z,14.05
2023-05-01T17:58:49.953Z,14.39
2023-05-01T18:01:18.261Z,14.55
2023-05-01T18:03:48.989Z,14.06
2023-05-01T18:06:17.846Z,14.46
2023-05-01T18:08:46.293Z,14.28
2023-05-01T18:11:14.700Z,14.10
2023-05-01T18:13:47.148Z,14.34
2023-05-01T18:16:15.496Z,14.07
2023-05-01T18:18:48.224Z,13.95
2023-05-01T18:21:18.851Z,13.79
2023-05-01T18:23:48.778Z,13.91
2023-05-01T18:26:19.424Z,13.94
2023-05-01T18:28:48.041Z,14.15
2023-05-01T18:31:16.323Z,14.01
2023-05-01T18:33:44.583Z,13.66
2023-05-01T18:36:16.337Z,13.65
2023-05-01T18:38:44.634Z,13.62
2023-05-01T18:41:12.993Z,13.30
2023-05-01T18:43:41.336Z,13.34
2023-05-01T18:46:09.674Z,13.50
2023-05-01T18:48:40.131Z,13.55
2023-05-01T18:51:09.763Z,13.45
2023-05-01T18:53:39.464Z,13.61
2023-05-01T18:56:09.412Z,13.61
2023-05-01T18:58:39.705Z,13.63
2023-05-01T19:01:08.058Z,13.28
2023-05-01T19:03:39.399Z,13.35
2023-05-01T19:06:10.346Z,13.44
2023-05-01T19:08:40.102Z,13.36
2023-05-01T19:11:10.494Z,13.22
2023-05-01T19:13:38.849Z,13.23
2023-05-01T19:16:07.234Z,13.30
2023-05-01T19:18:38.307Z,13.11
2023-05-01T19:21:06.718Z,13.23
2023-05-01T19:23:37.585Z,13.21
2023-05-01T19:26:07.965Z,13.00
2023-05-01T19:28:38.496Z,12.87
2023-05-01T19:31:07.656Z,13.05
2023-05-01T19:33:36.498Z,13.18
2023-05-01T19:36:05.163Z,13.11
2023-05-01T19:38:33.806Z,12.83
2023-05-01T19:41:02.134Z,12.85
2023-05-01T19:43:34.259Z,12.76
2023-05-01T19:46:05.678Z,12.75
2023-05-01T19:48:34.178Z,12.65
2023-05-01T19:51:02.429Z,12.65
2023-05-01T19:53:32.921Z,13.14
2023-05-01T19:56:01.193Z,12.88
2023-05-01T19:58:29.449Z,12.83
2023-05-01T20:01:02.310Z,12.83
2023-05-01T20:03:30.770Z,12.65
2023-05-01T20:05:59.296Z,12.71
2023-05-01T20:08:27.729Z,12.68
2023-05-01T20:10:56.794Z,13.08
2023-05-01T20:13:25.124Z,13.07
2023-05-01T20:15:53.442Z,12.85
2023-05-01T20:18:25.139Z,12.70
2023-05-01T20:20:55.786Z,12.97
2023-05-01T20:23:24.241Z,12.71
2023-05-01T20:25:53.332Z,13.17
2023-05-01T20:28:23.700Z,13.16
2023-05-01T20:30:52.209Z,13.08
2023-05-01T20:33:20.520Z,12.65
2023-05-01T20:35:51.200Z,12.50
2023-05-01T20:38:19.551Z,12.54
2023-05-01T20:40:50.682Z,12.48
2023-05-01T20:43:19.067Z,12.37
2023-05-01T20:45:47.769Z,12.49
2023-05-01T20:48:16.213Z,12.49
2023-05-01T20:50:48.199Z,12.35
2023-05-01T20:53:18.939Z,12.25
2023-05-01T20:55:47.306Z,12.37
2023-05-01T20:58:15.599Z,12.22
2023-05-01T21:00:43.999Z,12.41
2023-05-01T21:03:14.531Z,12.18
2023-05-01T21:05:42.914Z,12.21
2023-05-01T21:08:13.488Z,12.17
2023-05-01T21:10:43.254Z,12.05
2023-05-01T21:13:12.052Z,12.02
2023-05-01T21:15:41.997Z,11.74
2023-05-01T21:18:12.154Z,11.88
2023-05-01T21:20:40.655Z,12.07
2023-05-01T21:23:09.084Z,12.01
2023-05-01T21:25:37.431Z,12.00
2023-05-01T21:28:08.093Z,12.02
2023-05-01T21:30:38.761Z,12.08
2023-05-01T21:33:09.201Z,11.95
2023-05-01T21:35:37.660Z,11.94
2023-05-01T21:38:05.965Z,12.06
2023-05-01T21:40:37.960Z,11.86
2023-05-01T21:43:20.379Z,11.88
2023-05-01T21:45:49.143Z,11.88
2023-05-01T21:48:20.309Z,11.99
2023-05-01T21:50:50.054Z,12.04
2023-05-01T21:53:20.798Z,12.07
2023-05-01T21:55:49.074Z,12.18
2023-05-01T21:58:18.914Z,12.15
2023-05-01T22:02:42.209Z,11.78
2023-05-01T22:05:11.453Z,11.80
2023-05-01T22:07:43.706Z,11.90
2023-05-01T22:10:17.062Z,11.99
2023-05-01T22:12:46.440Z,11.82
2023-05-01T22:15:16.092Z,11.96
2023-05-01T22:17:46.432Z,11.79
2023-05-01T22:20:15.046Z,11.64
2023-05-01T22:22:43.808Z,11.55
2023-05-01T22:25:13.142Z,12.04
2023-05-01T22:27:41.755Z,11.67
2023-05-01T22:30:11.060Z,11.67
2023-05-01T22:32:39.662Z,11.80
2023-05-01T22:35:11.875Z,11.44
2023-05-01T22:37:40.180Z,11.45
2023-05-01T22:40:09.471Z,11.75
2023-05-01T22:42:37.740Z,11.45
2023-05-01T22:45:08.919Z,11.51
2023-05-01T22:47:37.222Z,11.68
2023-05-01T22:50:06.254Z,11.40
2023-05-01T22:52:36.371Z,11.43
2023-05-01T22:55:05.411Z,11.68
2023-05-01T22:57:33.717Z,11.52
2023-05-01T23:00:02.353Z,11.69
2023-05-01T23:02:34.109Z,11.99
2023-05-01T23:05:02.430Z,11.72
2023-05-01T23:07:33.071Z,11.62
2023-05-01T23:10:05.613Z,11.43
2023-05-01T23:12:34.047Z,11.41
2023-05-01T23:15:02.664Z,11.30
2023-05-01T23:17:36.025Z,11.40
2023-05-01T23:20:08.254Z,11.42
2023-05-01T23:22:37.985Z,11.82
2023-05-01T23:25:08.734Z,11.55
2023-05-01T23:27:42.870Z,11.99
2023-05-01T23:30:13.012Z,11.98
2023-05-01T23:32:41.803Z,11.56
2023-05-01T23:35:13.802Z,11.70
2023-05-01T23:37:42.799Z,11.41
2023-05-01T23:40:12.751Z,11.61
2023-05-01T23:42:41.333Z,11.42
2023-05-01T23:45:10.090Z,11.40
2023-05-01T23:47:40.718Z,11.35
2023-05-01T23:50:09.897Z,11.30
2023-05-01T23:52:38.174Z,11.15
2023-05-01T23:55:06.881Z,11.41
2023-05-01T23:57:36.512Z,11.21
